Time;durP1;ratioP1;P1;durP2;ratioP2;P2;SDS_P1;SDS_P2;PMS_P1;PMS_P2;Temp;Humidity;BMP_temperature;BMP_pressure;BME280_temperature;BME280_humidity;BME280_pressure;Samples;Min_cycle;Max_cycle;Signal;HPM_P1;HPM_P2
2023/04/06 00:01:32;;;;;;;7.57;4.65;;;2.70;83.20;;;;;;4966607;28;20042;-52
2023/04/06 00:03:57;;;;;;;5.78;4.60;;;2.70;83.00;;;;;;4968989;28;20050;-43
2023/04/06 00:06:23;;;;;;;9.88;5.05;;;2.70;83.40;;;;;;4968439;28;20420;-47
2023/04/06 00:08:49;;;;;;;7.72;4.50;;;2.70;84.80;;;;;;4969381;28;20042;-54
2023/04/06 00:11:16;;;;;;;17.88;4.97;;;2.70;85.40;;;;;;4968101;28;20046;-51
2023/04/06 00:13:42;;;;;;;8.20;4.43;;;2.70;86.50;;;;;;4951826;28;20497;-43
2023/04/06 00:16:08;;;;;;;7.80;4.90;;;2.70;87.60;;;;;;4969067;28;20049;-49
2023/04/06 00:18:34;;;;;;;6.90;4.80;;;2.70;87.00;;;;;;4968704;28;20049;-50
2023/04/06 00:21:00;;;;;;;7.82;4.47;;;2.60;87.10;;;;;;4969464;28;20512;-59
2023/04/06 00:23:25;;;;;;;8.50;4.93;;;2.60;87.30;;;;;;4968133;28;20062;-46
2023/04/06 00:25:51;;;;;;;7.60;5.35;;;2.50;89.80;;;;;;4969521;28;20043;-46
2023/04/06 00:28:17;;;;;;;7.22;4.97;;;2.50;90.00;;;;;;4968071;28;20041;-51
2023/04/06 00:30:43;;;;;;;7.10;4.97;;;2.50;90.20;;;;;;4969801;28;20050;-46
2023/04/06 00:33:08;;;;;;;6.88;4.82;;;2.50;90.40;;;;;;4967634;28;20078;-43
2023/04/06 00:35:34;;;;;;;6.95;5.15;;;2.60;90.40;;;;;;4968975;28;20471;-49
2023/04/06 00:38:01;;;;;;;7.20;4.57;;;2.50;90.50;;;;;;4968015;28;20074;-45
2023/04/06 00:40:28;;;;;;;12.68;5.47;;;2.50;90.50;;;;;;4968422;28;20031;-43
2023/04/06 00:42:54;;;;;;;8.82;5.28;;;2.50;90.40;;;;;;4968703;28;20117;-46
2023/04/06 00:45:20;;;;;;;8.45;5.18;;;2.50;90.20;;;;;;4967330;28;20054;-51
2023/04/06 00:47:46;;;;;;;12.63;6.28;;;2.40;89.40;;;;;;4969241;28;20515;-54
2023/04/06 00:50:12;;;;;;;11.10;5.68;;;2.30;88.70;;;;;;4966547;28;20050;-50
2023/04/06 00:52:38;;;;;;;10.15;5.60;;;2.30;89.20;;;;;;4951522;28;20039;-49
2023/04/06 00:55:04;;;;;;;11.32;5.53;;;2.20;89.60;;;;;;4968161;28;20493;-42
2023/04/06 00:57:31;;;;;;;12.10;5.88;;;2.10;89.90;;;;;;4947307;28;20089;-53
2023/04/06 00:59:57;;;;;;;9.27;5.82;;;2.10;90.40;;;;;;4967339;28;20129;-51
2023/04/06 01:02:24;;;;;;;7.15;5.18;;;2.10;90.60;;;;;;4966440;28;20129;-54
2023/04/06 01:04:51;;;;;;;7.82;5.38;;;2.10;90.60;;;;;;4950920;28;20059;-52
2023/04/06 01:07:17;;;;;;;10.02;6.05;;;2.00;90.80;;;;;;4950340;28;20038;-48
2023/04/06 01:09:42;;;;;;;8.25;6.25;;;2.00;90.60;;;;;;4951251;28;20889;-51
2023/04/06 01:12:08;;;;;;;9.43;5.70;;;2.00;90.80;;;;;;4967770;28;20049;-47
2023/04/06 01:14:34;;;;;;;9.73;5.75;;;2.00;90.90;;;;;;4968300;28;20085;-46
2023/04/06 01:17:00;;;;;;;7.65;5.55;;;2.00;90.60;;;;;;4950804;28;20046;-44
2023/04/06 01:19:26;;;;;;;8.02;5.30;;;1.90;90.80;;;;;;4966848;28;20066;-54
2023/04/06 01:21:53;;;;;;;9.20;5.72;;;1.90;90.90;;;;;;4967471;28;20118;-50
2023/04/06 01:24:19;;;;;;;7.93;5.82;;;1.90;91.00;;;;;;4967019;28;20046;-46
2023/04/06 01:26:45;;;;;;;6.53;5.57;;;1.90;91.00;;;;;;4966741;28;20062;-44
2023/04/06 01:29:11;;;;;;;12.63;5.90;;;1.80;90.90;;;;;;4967389;28;20062;-44
2023/04/06 01:31:38;;;;;;;7.97;6.18;;;1.80;90.70;;;;;;4969275;28;20047;-43
2023/04/06 01:34:04;;;;;;;12.40;6.18;;;1.70;91.00;;;;;;4967315;28;20485;-42
2023/04/06 01:36:30;;;;;;;12.13;6.57;;;1.70;91.40;;;;;;4968733;28;20030;-50
2023/04/06 01:38:56;;;;;;;8.70;5.18;;;1.70;91.80;;;;;;4968518;28;20055;-48
2023/04/06 01:41:22;;;;;;;12.05;6.43;;;1.70;92.10;;;;;;4967129;28;20097;-54
2023/04/06 01:43:49;;;;;;;10.13;5.63;;;1.70;92.10;;;;;;4967749;28;20054;-49
2023/04/06 01:46:15;;;;;;;8.05;5.38;;;1.70;92.10;;;;;;4967408;28;20071;-52
2023/04/06 01:48:41;;;;;;;13.13;5.78;;;1.70;92.00;;;;;;4951119;28;20375;-49
2023/04/06 01:51:07;;;;;;;8.35;6.13;;;1.70;92.00;;;;;;4967448;28;20042;-42
2023/04/06 01:53:33;;;;;;;9.25;6.10;;;1.70;91.80;;;;;;4968320;28;20055;-49
2023/04/06 01:55:58;;;;;;;10.70;6.78;;;1.60;91.60;;;;;;4966613;28;20058;-46
2023/04/06 01:58:25;;;;;;;13.30;5.72;;;1.60;92.00;;;;;;4967151;28;20059;-55
2023/04/06 02:00:51;;;;;;;11.30;6.45;;;1.60;92.30;;;;;;4967312;28;20046;-46
2023/04/06 02:03:16;;;;;;;9.10;6.45;;;1.60;92.90;;;;;;4967241;28;20066;-54
2023/04/06 02:05:42;;;;;;;13.45;6.88;;;1.60;92.40;;;;;;4951318;28;20067;-46
2023/04/06 02:08:08;;;;;;;10.13;6.22;;;1.60;92.30;;;;;;4966887;28;20041;-51
2023/04/06 02:10:34;;;;;;;10.85;6.43;;;1.50;92.70;;;;;;4971624;28;20055;-49
2023/04/06 02:13:01;;;;;;;12.80;6.50;;;1.60;93.00;;;;;;4953303;28;20078;-48
2023/04/06 02:15:27;;;;;;;10.05;6.30;;;1.60;94.50;;;;;;4971722;28;20037;-47
2023/04/06 02:17:53;;;;;;;9.15;6.43;;;1.70;94.60;;;;;;4971744;28;20043;-41
2023/04/06 02:20:19;;;;;;;12.68;6.78;;;1.70;95.00;;;;;;4969925;28;20383;-45
2023/04/06 02:22:45;;;;;;;14.85;6.95;;;1.70;95.20;;;;;;4971866;28;20061;-49
2023/04/06 02:25:11;;;;;;;11.63;6.80;;;1.80;95.50;;;;;;4970324;28;20556;-51
2023/04/06 02:27:37;;;;;;;10.35;6.60;;;1.70;95.40;;;;;;4971573;28;20050;-51
2023/04/06 02:30:03;;;;;;;15.00;7.28;;;1.80;95.50;;;;;;4969831;28;20053;-45
2023/04/06 02:32:29;;;;;;;13.00;7.15;;;1.80;95.70;;;;;;4972145;28;20448;-52
2023/04/06 02:34:55;;;;;;;11.70;6.45;;;1.80;95.70;;;;;;4969617;28;20130;-44
2023/04/06 02:37:21;;;;;;;11.20;8.07;;;1.80;96.10;;;;;;4970681;28;20502;-50
2023/04/06 02:39:47;;;;;;;13.23;6.45;;;1.80;96.00;;;;;;4971815;28;20406;-43
2023/04/06 02:42:15;;;;;;;9.85;6.82;;;1.80;96.50;;;;;;4969277;28;20043;-51
2023/04/06 02:44:41;;;;;;;9.10;6.55;;;1.80;96.60;;;;;;4953662;28;20070;-42
2023/04/06 02:47:07;;;;;;;10.13;7.25;;;1.90;96.60;;;;;;4969622;28;20058;-52
2023/04/06 02:49:33;;;;;;;12.60;7.63;;;1.90;96.50;;;;;;4971540;28;20043;-44
2023/04/06 02:51:58;;;;;;;9.95;7.00;;;1.80;96.70;;;;;;4952854;28;20477;-42
2023/04/06 02:54:24;;;;;;;11.75;7.55;;;1.80;96.50;;;;;;4969388;28;20098;-45
2023/04/06 02:56:51;;;;;;;9.40;6.90;;;1.70;96.40;;;;;;4971663;28;20066;-60
2023/04/06 02:59:17;;;;;;;14.65;7.60;;;1.70;96.30;;;;;;4969464;28;20038;-46
2023/04/06 03:01:43;;;;;;;8.82;6.88;;;1.60;95.80;;;;;;4971603;28;20053;-56
2023/04/06 03:04:09;;;;;;;9.48;7.10;;;1.60;95.50;;;;;;4969314;28;20055;-46
2023/04/06 03:06:34;;;;;;;12.18;7.93;;;1.50;95.30;;;;;;4971142;28;20054;-48
2023/04/06 03:09:00;;;;;;;11.77;7.43;;;1.40;95.20;;;;;;4969089;28;20046;-42
2023/04/06 03:11:29;;;;;;;10.55;7.28;;;1.30;95.10;;;;;;4970446;28;20090;-45
2023/04/06 03:13:55;;;;;;;12.73;7.38;;;1.20;95.30;;;;;;4970350;28;20059;-48
2023/04/06 03:16:20;;;;;;;8.32;6.63;;;1.20;95.40;;;;;;4952185;28;20394;-45
2023/04/06 03:18:47;;;;;;;11.80;7.43;;;1.10;95.70;;;;;;4971181;28;20046;-51
2023/04/06 03:21:15;;;;;;;11.05;7.63;;;1.10;95.70;;;;;;4950531;28;20062;-48
2023/04/06 03:23:41;;;;;;;12.38;7.32;;;1.00;95.70;;;;;;4970886;28;20054;-50
2023/04/06 03:26:07;;;;;;;10.07;7.00;;;1.00;95.80;;;;;;4967166;28;20038;-53
2023/04/06 03:28:32;;;;;;;9.85;6.80;;;0.90;96.10;;;;;;4970449;28;20523;-43
2023/04/06 03:30:58;;;;;;;12.60;7.07;;;0.90;97.20;;;;;;4969413;28;20133;-43
2023/04/06 03:33:26;;;;;;;9.60;7.13;;;1.00;98.70;;;;;;4970054;28;20129;-53
2023/04/06 03:35:53;;;;;;;13.10;7.70;;;1.00;99.90;;;;;;4970649;28;20039;-42
2023/04/06 03:38:19;;;;;;;10.75;7.75;;;1.00;99.90;;;;;;4968176;28;20047;-49
2023/04/06 03:40:45;;;;;;;9.73;7.03;;;1.00;99.90;;;;;;4970299;28;20058;-56
2023/04/06 03:43:11;;;;;;;9.10;5.97;;;1.00;99.70;;;;;;4968374;28;20035;-44
2023/04/06 03:45:37;;;;;;;16.13;6.70;;;0.80;98.10;;;;;;4969009;28;20190;-43
2023/04/06 03:48:03;;;;;;;13.65;7.75;;;0.60;95.20;;;;;;4968386;28;20104;-45
2023/04/06 03:50:29;;;;;;;7.90;6.50;;;0.40;94.50;;;;;;4970068;28;20050;-48
2023/04/06 03:52:55;;;;;;;14.50;7.40;;;0.30;94.30;;;;;;4969953;28;20058;-45
2023/04/06 03:55:21;;;;;;;9.75;7.15;;;0.10;94.90;;;;;;4968330;28;20043;-48
2023/04/06 03:57:46;;;;;;;11.23;8.25;;;0.20;98.80;;;;;;4970459;28;20073;-50
2023/04/06 04:00:13;;;;;;;11.98;7.25;;;0.40;99.90;;;;;;4966323;28;20047;-45
2023/04/06 04:02:39;;;;;;;8.85;6.78;;;0.50;99.90;;;;;;4969263;28;20223;-44
2023/04/06 04:05:05;;;;;;;10.50;6.88;;;0.70;99.90;;;;;;4968110;28;20063;-55
2023/04/06 04:07:31;;;;;;;11.55;6.40;;;0.70;99.90;;;;;;4970199;28;20490;-51
2023/04/06 04:09:57;;;;;;;19.63;7.18;;;0.50;99.90;;;;;;4968700;28;20058;-42
2023/04/06 04:12:23;;;;;;;10.13;7.00;;;0.30;98.00;;;;;;4951299;28;20050;-48
2023/04/06 04:14:49;;;;;;;12.50;7.10;;;0.20;97.20;;;;;;4968940;28;20042;-46
2023/04/06 04:17:14;;;;;;;10.98;6.53;;;0.00;97.00;;;;;;4967945;28;20042;-50
2023/04/06 04:19:40;;;;;;;8.35;7.15;;;-0.10;96.80;;;;;;4968546;28;20093;-49
2023/04/06 04:22:06;;;;;;;12.48;7.40;;;-0.10;98.20;;;;;;4968240;28;20046;-42
2023/04/06 04:24:32;;;;;;;11.07;7.43;;;-0.10;98.80;;;;;;4969709;28;20038;-46
2023/04/06 04:26:58;;;;;;;12.13;8.20;;;-0.10;99.70;;;;;;4967679;28;20134;-49
2023/04/06 04:29:23;;;;;;;10.43;6.82;;;-0.10;99.90;;;;;;4951761;28;20051;-45
2023/04/06 04:31:50;;;;;;;9.57;7.18;;;0.00;99.90;;;;;;4969121;28;20046;-42
2023/04/06 04:34:16;;;;;;;12.25;8.05;;;0.00;99.90;;;;;;4966927;28;20050;-55
2023/04/06 04:36:42;;;;;;;8.88;7.18;;;0.10;99.90;;;;;;4968226;28;20043;-46
2023/04/06 04:39:08;;;;;;;8.85;7.22;;;0.20;99.90;;;;;;4966878;28;20038;-46
2023/04/06 04:41:34;;;;;;;12.00;7.80;;;0.20;99.90;;;;;;4969337;28;20063;-49
2023/04/06 04:44:00;;;;;;;12.35;8.48;;;0.30;99.90;;;;;;4967653;28;20125;-44
2023/04/06 04:46:25;;;;;;;15.75;9.38;;;0.40;99.90;;;;;;4968728;28;20054;-45
2023/04/06 04:48:51;;;;;;;14.98;8.75;;;0.40;99.90;;;;;;4968468;28;20149;-42
2023/04/06 04:51:17;;;;;;;13.93;9.75;;;0.40;99.90;;;;;;4967766;28;20101;-49
2023/04/06 04:53:43;;;;;;;16.25;8.88;;;0.30;99.90;;;;;;4967314;28;20069;-41
2023/04/06 04:56:08;;;;;;;11.30;7.75;;;0.40;99.90;;;;;;4949697;28;20050;-52
2023/04/06 04:58:34;;;;;;;12.32;7.57;;;0.40;99.90;;;;;;4951597;28;20178;-44
2023/04/06 05:01:00;;;;;;;14.95;8.93;;;0.50;99.90;;;;;;4964979;28;20053;-54
2023/04/06 05:03:27;;;;;;;17.05;8.95;;;0.50;99.90;;;;;;4968753;28;20457;-45
2023/04/06 05:05:52;;;;;;;13.90;8.88;;;0.50;99.90;;;;;;4950080;28;20047;-42
2023/04/06 05:08:18;;;;;;;19.42;9.18;;;0.60;99.90;;;;;;4968510;28;20596;-55
2023/04/06 05:10:45;;;;;;;14.05;9.10;;;0.60;99.90;;;;;;4968302;28;20140;-47
2023/04/06 05:13:10;;;;;;;11.55;8.45;;;0.60;99.90;;;;;;4967747;28;20624;-55
2023/04/06 05:15:40;;;;;;;13.13;9.05;;;0.60;99.90;;;;;;4969722;28;20121;-50
2023/04/06 05:18:08;;;;;;;13.32;9.10;;;0.70;99.90;;;;;;4967125;28;20061;-44
2023/04/06 05:20:35;;;;;;;13.98;8.73;;;0.70;99.90;;;;;;4968178;28;20528;-49
2023/04/06 05:23:01;;;;;;;13.30;9.13;;;0.70;99.70;;;;;;4949896;28;20109;-47
2023/04/06 05:25:27;;;;;;;15.27;9.10;;;0.70;99.20;;;;;;4968524;28;20058;-54
2023/04/06 05:27:53;;;;;;;14.00;9.27;;;0.80;99.00;;;;;;4949735;28;20059;-41
2023/04/06 05:30:19;;;;;;;14.07;9.55;;;0.80;98.60;;;;;;4968212;28;20035;-44
2023/04/06 05:32:45;;;;;;;15.55;8.85;;;0.80;98.30;;;;;;4969123;28;20140;-50
2023/04/06 05:35:11;;;;;;;9.95;8.23;;;0.70;98.10;;;;;;4966736;28;20105;-51
2023/04/06 05:37:38;;;;;;;13.85;9.07;;;0.80;97.90;;;;;;4968321;28;20069;-52
2023/04/06 05:40:04;;;;;;;14.52;9.00;;;0.80;96.90;;;;;;4949589;28;20497;-49
2023/04/06 05:42:41;;;;;;;13.90;9.00;;;0.80;96.50;;;;;;4967532;28;20517;-46
2023/04/06 05:45:07;;;;;;;13.82;8.60;;;0.80;96.40;;;;;;4969481;28;20062;-44
2023/04/06 05:47:32;;;;;;;13.70;9.02;;;0.90;95.70;;;;;;4953851;28;20054;-52
2023/04/06 05:49:58;;;;;;;12.50;8.57;;;1.00;94.30;;;;;;4970599;28;20051;-42
2023/04/06 05:52:24;;;;;;;14.27;9.15;;;1.00;93.70;;;;;;4953320;28;20050;-44
2023/04/06 05:54:50;;;;;;;10.73;8.50;;;1.00;93.80;;;;;;4972228;28;20368;-46
2023/04/06 05:57:18;;;;;;;10.13;7.72;;;1.10;94.20;;;;;;4968851;28;20043;-55
2023/04/06 05:59:45;;;;;;;15.07;9.02;;;1.10;93.30;;;;;;4974392;28;20149;-52
2023/04/06 06:02:10;;;;;;;15.25;9.10;;;1.10;92.40;;;;;;4969501;28;20097;-47
2023/04/06 06:04:36;;;;;;;14.70;9.25;;;1.20;92.00;;;;;;4971666;28;20074;-44
2023/04/06 06:07:02;;;;;;;13.27;9.40;;;1.40;92.20;;;;;;4970786;28;20125;-49
2023/04/06 06:09:28;;;;;;;13.65;8.95;;;1.70;91.50;;;;;;4970900;28;20085;-45
2023/04/06 06:11:54;;;;;;;14.15;8.00;;;1.80;89.20;;;;;;4970751;28;20309;-56
2023/04/06 06:14:19;;;;;;;11.80;7.32;;;1.90;86.30;;;;;;4969283;28;20405;-52
2023/04/06 06:16:45;;;;;;;10.90;7.22;;;2.00;82.10;;;;;;4971720;28;20042;-49
2023/04/06 06:19:11;;;;;;;11.30;8.77;;;2.00;79.40;;;;;;4952903;28;20050;-52
2023/04/06 06:21:38;;;;;;;11.18;7.93;;;2.10;79.00;;;;;;4969212;28;20568;-47
2023/04/06 06:24:04;;;;;;;10.73;7.15;;;2.30;79.10;;;;;;4969005;28;20393;-54
2023/04/06 06:26:30;;;;;;;13.93;9.00;;;2.50;72.60;;;;;;4970469;28;20058;-52
2023/04/06 06:28:56;;;;;;;14.38;8.63;;;2.50;69.40;;;;;;4971508;28;20050;-45
2023/04/06 06:31:22;;;;;;;13.43;7.72;;;2.60;68.60;;;;;;4958267;28;20413;-51
2023/04/06 06:33:51;;;;;;;10.82;7.50;;;2.70;67.60;;;;;;4970878;28;20078;-42
2023/04/06 06:36:18;;;;;;;10.55;7.72;;;2.70;66.60;;;;;;4976633;28;20046;-42
2023/04/06 06:38:44;;;;;;;8.98;6.75;;;2.80;67.60;;;;;;4971863;28;20050;-44
2023/04/06 06:41:10;;;;;;;11.55;7.28;;;2.90;68.00;;;;;;4977115;28;20046;-46
2023/04/06 06:43:36;;;;;;;10.10;7.32;;;3.20;70.30;;;;;;4970939;28;20054;-49
2023/04/06 06:46:03;;;;;;;11.45;7.07;;;3.50;68.30;;;;;;4970962;28;20069;-48
2023/04/06 06:48:29;;;;;;;12.52;7.60;;;3.70;66.50;;;;;;4969989;28;20373;-44
2023/04/06 06:50:55;;;;;;;9.88;6.85;;;3.80;66.80;;;;;;4971274;28;20057;-50
2023/04/06 06:53:21;;;;;;;8.98;6.93;;;3.80;67.00;;;;;;4936841;28;20133;-57
2023/04/06 06:55:48;;;;;;;10.32;7.70;;;3.90;67.30;;;;;;4975326;28;20060;-46
2023/04/06 06:58:14;;;;;;;11.00;7.40;;;3.90;64.90;;;;;;4972379;28;20442;-51
2023/04/06 07:00:40;;;;;;;13.93;6.97;;;3.90;66.10;;;;;;4974188;28;20047;-57
2023/04/06 07:03:06;;;;;;;8.77;6.38;;;4.00;66.60;;;;;;4952619;28;20475;-41
2023/04/06 07:05:31;;;;;;;13.43;7.40;;;4.10;63.60;;;;;;4952397;28;20053;-46
2023/04/06 07:07:57;;;;;;;15.98;7.75;;;4.20;63.60;;;;;;4970865;28;20104;-45
2023/04/06 07:10:23;;;;;;;12.20;6.93;;;4.40;64.80;;;;;;4969274;28;20049;-46
2023/04/06 07:12:49;;;;;;;11.25;6.97;;;4.50;60.60;;;;;;4970681;28;20560;-47
2023/04/06 07:15:15;;;;;;;8.05;6.40;;;4.70;61.20;;;;;;4969689;28;20132;-48
2023/04/06 07:17:41;;;;;;;10.18;6.45;;;4.90;61.80;;;;;;4952276;28;20550;-48
2023/04/06 07:20:07;;;;;;;12.18;7.60;;;5.00;59.50;;;;;;4951924;28;20182;-47
2023/04/06 07:22:34;;;;;;;9.32;5.90;;;5.20;58.20;;;;;;4970198;28;20043;-49
2023/04/06 07:25:00;;;;;;;9.13;6.45;;;5.40;58.60;;;;;;4969158;28;20058;-46
2023/04/06 07:27:25;;;;;;;9.13;5.88;;;5.60;56.60;;;;;;4973666;28;20043;-48
2023/04/06 07:29:51;;;;;;;9.63;6.43;;;5.80;50.70;;;;;;4951478;28;20397;-42
2023/04/06 07:32:17;;;;;;;12.23;7.47;;;5.80;51.30;;;;;;4966633;28;20082;-50
2023/04/06 07:34:44;;;;;;;9.48;6.90;;;5.90;49.70;;;;;;4967222;28;20529;-59
2023/04/06 07:37:10;;;;;;;13.70;6.82;;;6.00;50.00;;;;;;4967451;28;20046;-51
2023/04/06 07:39:36;;;;;;;8.43;6.78;;;6.10;51.00;;;;;;4969288;28;20537;-52
2023/04/06 07:42:02;;;;;;;8.75;6.85;;;6.20;50.70;;;;;;4968520;28;20049;-45
2023/04/06 07:44:27;;;;;;;16.02;7.30;;;6.30;50.10;;;;;;4969107;28;20513;-47
2023/04/06 07:46:53;;;;;;;14.82;7.20;;;6.50;47.10;;;;;;4965112;28;20162;-42
2023/04/06 07:49:20;;;;;;;12.10;7.10;;;6.50;48.20;;;;;;4968598;28;20049;-44
2023/04/06 07:51:46;;;;;;;8.90;6.63;;;6.70;48.20;;;;;;4968048;28;20058;-45
2023/04/06 07:54:12;;;;;;;11.63;7.07;;;6.80;49.30;;;;;;4966575;28;20035;-57
2023/04/06 07:56:38;;;;;;;7.57;6.32;;;6.90;43.90;;;;;;4950195;28;20047;-48
2023/04/06 07:59:03;;;;;;;10.60;6.60;;;7.10;42.20;;;;;;4967547;28;20072;-50
2023/04/06 08:01:30;;;;;;;16.02;7.15;;;7.20;41.00;;;;;;4967019;28;20513;-59
2023/04/06 08:03:56;;;;;;;8.63;5.85;;;7.40;44.40;;;;;;4968319;28;20077;-46
2023/04/06 08:06:22;;;;;;;7.63;6.32;;;7.50;37.00;;;;;;4972101;28;20050;-51
2023/04/06 08:08:48;;;;;;;12.50;6.63;;;7.50;34.30;;;;;;4968028;28;20457;-51
2023/04/06 08:11:14;;;;;;;8.10;6.05;;;7.60;36.60;;;;;;4967590;28;20045;-53
2023/04/06 08:13:40;;;;;;;11.13;6.82;;;7.80;36.90;;;;;;4968449;28;20397;-51
2023/04/06 08:16:06;;;;;;;12.57;5.88;;;8.00;33.70;;;;;;4966709;28;20113;-53
2023/04/06 08:18:32;;;;;;;15.55;5.80;;;8.10;33.50;;;;;;4968837;28;20050;-52
2023/04/06 08:20:58;;;;;;;8.85;6.30;;;8.20;32.30;;;;;;4968498;28;20054;-44
2023/04/06 08:23:23;;;;;;;8.35;6.20;;;8.20;31.40;;;;;;4967866;28;20133;-53
2023/04/06 08:25:49;;;;;;;9.52;6.78;;;8.30;33.40;;;;;;4968352;28;20053;-49
2023/04/06 08:28:15;;;;;;;8.88;5.97;;;8.40;30.40;;;;;;4968651;28;20362;-56
2023/04/06 08:30:42;;;;;;;7.70;6.90;;;8.50;30.30;;;;;;4969359;28;20503;-44
2023/04/06 08:33:09;;;;;;;10.73;6.75;;;8.50;29.50;;;;;;4967655;28;20042;-46
2023/04/06 08:35:35;;;;;;;10.85;5.20;;;8.60;27.50;;;;;;4969202;28;20054;-53
2023/04/06 08:38:00;;;;;;;8.70;6.22;;;8.70;28.50;;;;;;4966374;28;20042;-52
2023/04/06 08:40:27;;;;;;;8.25;6.45;;;8.80;30.20;;;;;;4969476;28;20089;-54
2023/04/06 08:42:55;;;;;;;10.13;6.50;;;8.80;26.50;;;;;;4968684;28;20961;-46
2023/04/06 08:45:21;;;;;;;8.73;6.82;;;8.90;25.40;;;;;;4967738;28;20062;-54
2023/04/06 08:47:50;;;;;;;6.38;4.57;;;8.90;27.10;;;;;;4969148;28;20054;-47
2023/04/06 08:50:17;;;;;;;10.45;7.00;;;9.00;25.20;;;;;;4967747;28;20053;-54
2023/04/06 08:52:46;;;;;;;12.27;6.85;;;9.10;27.90;;;;;;4969120;28;20419;-50
2023/04/06 08:55:12;;;;;;;10.50;6.50;;;9.20;26.50;;;;;;4967350;28;20051;-49
2023/04/06 08:57:38;;;;;;;10.60;5.82;;;9.20;22.50;;;;;;4968791;28;20035;-51
2023/04/06 09:00:06;;;;;;;8.38;6.20;;;9.30;22.20;;;;;;4967260;28;20096;-51
2023/04/06 09:02:32;;;;;;;10.25;7.32;;;9.40;21.60;;;;;;4968547;28;20477;-50
2023/04/06 09:04:58;;;;;;;9.43;6.88;;;9.60;20.50;;;;;;4968395;28;20039;-47
2023/04/06 09:07:24;;;;;;;10.20;7.00;;;9.60;22.40;;;;;;4967645;28;20129;-52
2023/04/06 09:09:51;;;;;;;9.18;6.95;;;9.70;23.40;;;;;;4967427;28;20129;-50
2023/04/06 09:12:26;;;;;;;7.82;6.13;;;9.90;25.00;;;;;;4958091;28;20516;-51
2023/04/06 09:14:53;;;;;;;8.38;6.68;;;9.90;18.00;;;;;;4960683;28;20555;-53
2023/04/06 09:17:23;;;;;;;11.60;6.65;;;10.00;18.70;;;;;;4982433;28;20077;-51
2023/04/06 09:19:49;;;;;;;11.38;6.32;;;10.10;15.00;;;;;;4953317;28;20039;-50
2023/04/06 09:22:15;;;;;;;7.05;6.35;;;10.20;15.70;;;;;;4980206;28;20467;-48
2023/04/06 09:24:49;;;;;;;7.97;6.43;;;10.30;15.00;;;;;;4981830;28;20039;-50
2023/04/06 09:27:16;;;;;;;9.45;5.78;;;10.40;11.50;;;;;;4955120;28;20473;-54
2023/04/06 09:29:43;;;;;;;11.00;6.93;;;10.40;13.90;;;;;;4971837;28;20051;-48
2023/04/06 09:32:16;;;;;;;8.27;6.47;;;10.30;13.50;;;;;;4955271;28;20505;-47
2023/04/06 09:34:42;;;;;;;9.20;7.03;;;10.50;13.70;;;;;;4971265;28;20042;-48
2023/04/06 09:37:18;;;;;;;10.05;6.80;;;10.70;14.70;;;;;;4953714;28;20555;-52
2023/04/06 09:39:45;;;;;;;8.75;6.95;;;10.70;8.80;;;;;;4978341;28;20055;-53
2023/04/06 09:42:25;;;;;;;8.45;6.50;;;10.60;9.00;;;;;;4956178;28;20055;-52
2023/04/06 09:44:51;;;;;;;9.23;6.68;;;10.80;8.90;;;;;;4970715;28;20082;-55
2023/04/06 09:47:18;;;;;;;8.43;6.20;;;10.80;9.70;;;;;;4971292;28;20078;-46
2023/04/06 09:49:45;;;;;;;7.38;6.22;;;10.90;8.60;;;;;;4969139;28;20050;-50
2023/04/06 09:52:12;;;;;;;13.20;6.28;;;11.00;7.90;;;;;;4970498;28;20039;-49
2023/04/06 09:54:38;;;;;;;7.38;6.20;;;11.20;6.00;;;;;;4968231;28;20528;-56
2023/04/06 09:57:28;;;;;;;4.78;4.38;;;11.20;2.30;;;;;;4973672;28;20126;-53
2023/04/06 10:00:13;;;;;;;10.05;7.30;;;11.20;4.60;;;;;;4968864;28;20045;-47
2023/04/06 10:03:11;;;;;;;11.45;7.07;;;11.20;4.50;;;;;;4952905;28;20051;-57
2023/04/06 10:05:39;;;;;;;8.15;5.90;;;11.30;7.10;;;;;;4970427;28;20051;-47
2023/04/06 10:08:09;;;;;;;16.27;6.50;;;11.50;4.20;;;;;;4951291;28;20063;-47
2023/04/06 10:10:35;;;;;;;10.10;6.07;;;11.50;1.00;;;;;;4953351;28;20438;-54
2023/04/06 10:13:02;;;;;;;10.07;6.13;;;11.50;2.80;;;;;;4977009;28;20042;-57
2023/04/06 10:15:29;;;;;;;6.97;5.15;;;11.60;1.00;;;;;;4953591;28;20047;-46
2023/04/06 10:17:58;;;;;;;8.43;5.75;;;11.60;1.00;;;;;;4969208;28;20569;-48
2023/04/06 10:20:43;;;;;;;10.45;7.13;;;11.70;1.00;;;;;;4969545;28;20041;-52
2023/04/06 10:23:25;;;;;;;8.07;6.22;;;11.80;1.00;;;;;;4970741;28;20094;-48
2023/04/06 10:25:58;;;;;;;12.57;6.22;;;11.90;1.00;;;;;;4963592;28;20047;-47
2023/04/06 10:28:25;;;;;;;10.38;6.65;;;11.80;1.00;;;;;;4970426;28;20963;-54
2023/04/06 10:30:58;;;;;;;11.82;6.63;;;11.90;1.00;;;;;;4969060;28;20042;-45
2023/04/06 10:33:24;;;;;;;11.68;6.72;;;11.90;1.00;;;;;;4968037;28;20082;-57
2023/04/06 10:35:49;;;;;;;10.70;6.43;;;12.10;1.30;;;;;;4970168;28;20038;-50
2023/04/06 10:38:19;;;;;;;11.07;6.80;;;12.20;1.00;;;;;;4969009;28;20049;-58
2023/04/06 10:40:48;;;;;;;15.98;7.55;;;12.30;1.00;;;;;;4952424;28;20059;-59
2023/04/06 10:43:21;;;;;;;7.68;5.43;;;12.20;1.00;;;;;;4949447;28;20737;-48
2023/04/06 10:45:59;;;;;;;15.00;7.43;;;11.80;1.00;;;;;;4921494;28;1155673;-62
2023/04/06 10:48:25;;;;;;;9.20;6.85;;;11.60;1.00;;;;;;4970635;28;20743;-48
2023/04/06 10:50:52;;;;;;;12.35;7.82;;;11.70;1.00;;;;;;4969824;28;20709;-51
2023/04/06 10:53:25;;;;;;;12.63;6.72;;;11.70;1.00;;;;;;4974879;28;20392;-51
2023/04/06 10:55:54;;;;;;;11.70;7.43;;;11.80;1.00;;;;;;4969054;28;20059;-54
2023/04/06 10:58:19;;;;;;;12.23;7.93;;;11.80;1.00;;;;;;4969600;28;20053;-51
2023/04/06 11:00:50;;;;;;;12.10;8.07;;;11.80;1.00;;;;;;4935678;28;20055;-61
2023/04/06 11:03:16;;;;;;;16.05;8.20;;;11.90;1.00;;;;;;4955907;28;20515;-48
2023/04/06 11:05:46;;;;;;;14.85;8.27;;;11.90;1.00;;;;;;4953058;28;20089;-52
2023/04/06 11:08:34;;;;;;;13.75;8.15;;;12.00;1.00;;;;;;4971958;28;20133;-51
2023/04/06 11:11:15;;;;;;;14.57;8.20;;;12.20;1.00;;;;;;4969260;28;20567;-49
2023/04/06 11:13:42;;;;;;;14.18;8.18;;;12.40;1.00;;;;;;4954578;28;20485;-52
2023/04/06 11:16:21;;;;;;;13.95;8.63;;;12.50;1.00;;;;;;4952851;28;20101;-51
2023/04/06 11:18:57;;;;;;;16.85;7.95;;;12.50;1.00;;;;;;4973589;28;20046;-49
2023/04/06 11:21:47;;;;;;;19.30;10.18;;;12.40;1.00;;;;;;4968712;28;20541;-57
2023/04/06 11:24:15;;;;;;;14.68;8.45;;;12.40;1.00;;;;;;4949078;28;20454;-45
2023/04/06 11:26:53;;;;;;;13.40;8.57;;;12.30;1.00;;;;;;4951589;28;20051;-49
2023/04/06 11:29:27;;;;;;;25.23;10.30;;;12.40;1.00;;;;;;4948944;28;20047;-48
2023/04/06 11:32:04;;;;;;;16.83;9.32;;;12.40;1.00;;;;;;4950798;28;20039;-45
2023/04/06 11:34:32;;;;;;;17.90;10.02;;;12.60;1.00;;;;;;4963346;28;20086;-44
2023/04/06 11:37:01;;;;;;;16.92;8.68;;;12.70;1.00;;;;;;4970463;28;20042;-48
2023/04/06 11:39:28;;;;;;;18.00;10.68;;;12.70;1.00;;;;;;4969346;28;20043;-45
2023/04/06 11:42:03;;;;;;;14.60;10.95;;;12.70;1.00;;;;;;4968997;28;20505;-47
2023/04/06 11:44:31;;;;;;;14.60;10.52;;;12.70;1.00;;;;;;4967207;28;20517;-48
2023/04/06 11:46:57;;;;;;;17.25;9.30;;;12.70;1.00;;;;;;4967911;28;20436;-51
2023/04/06 11:49:28;;;;;;;14.93;9.70;;;12.90;1.00;;;;;;4955716;28;20054;-50
2023/04/06 11:51:56;;;;;;;12.50;8.23;;;12.80;1.00;;;;;;4966709;28;20061;-61
2023/04/06 11:54:35;;;;;;;17.77;10.05;;;12.60;1.00;;;;;;4956438;28;20089;-49
2023/04/06 11:57:03;;;;;;;16.55;10.10;;;12.70;1.00;;;;;;4967597;28;20074;-55
2023/04/06 11:59:28;;;;;;;15.25;10.07;;;12.70;1.00;;;;;;4947864;28;20047;-48
2023/04/06 12:01:54;;;;;;;14.57;9.52;;;12.90;1.00;;;;;;4951464;28;20088;-44
2023/04/06 12:04:21;;;;;;;16.25;10.55;;;13.00;1.00;;;;;;4973605;28;20046;-48
2023/04/06 12:06:47;;;;;;;17.65;10.93;;;13.00;1.00;;;;;;4936362;28;20497;-44
2023/04/06 12:09:13;;;;;;;17.48;11.63;;;13.10;1.00;;;;;;4966136;28;20039;-55
2023/04/06 12:11:40;;;;;;;21.38;11.27;;;13.10;1.00;;;;;;4952244;28;20042;-51
2023/04/06 12:14:07;;;;;;;15.77;11.75;;;13.20;1.00;;;;;;4966638;28;20043;-52
2023/04/06 12:16:34;;;;;;;16.38;11.52;;;13.20;1.00;;;;;;4970381;28;20043;-50
2023/04/06 12:19:01;;;;;;;18.73;10.73;;;13.30;1.00;;;;;;4967186;28;20090;-51
2023/04/06 12:21:40;;;;;;;15.40;11.07;;;13.40;1.00;;;;;;4969231;28;20077;-43
2023/04/06 12:24:06;;;;;;;17.53;12.00;;;13.40;1.00;;;;;;4968921;28;20054;-48
2023/04/06 12:26:32;;;;;;;15.10;10.75;;;13.50;1.00;;;;;;4949505;28;20342;-54
2023/04/06 12:29:06;;;;;;;17.20;12.07;;;13.60;1.00;;;;;;4936296;28;20046;-56
2023/04/06 12:31:33;;;;;;;16.08;10.50;;;13.60;1.00;;;;;;4967978;28;20047;-56
2023/04/06 12:34:01;;;;;;;17.80;11.10;;;13.70;1.00;;;;;;4952178;28;20540;-58
2023/04/06 12:36:27;;;;;;;19.45;12.38;;;13.50;1.00;;;;;;4956008;28;20047;-54
2023/04/06 12:38:53;;;;;;;20.52;13.07;;;13.40;1.00;;;;;;4973859;28;20060;-48
2023/04/06 12:41:19;;;;;;;20.45;12.02;;;13.50;1.00;;;;;;4970454;28;20439;-61
2023/04/06 12:43:45;;;;;;;13.77;9.05;;;13.60;1.00;;;;;;4964741;28;20058;-45
2023/04/06 12:46:11;;;;;;;20.25;10.85;;;13.70;1.00;;;;;;4949657;28;20059;-51
2023/04/06 12:48:37;;;;;;;16.23;11.77;;;13.80;1.00;;;;;;4966850;28;20059;-52